This is the latest recevied weather packets stored in our database for station/object 5B4ALR-13. If no packets are shown the sender has not sent any weather packets the latest 1 day(s).
| Time | Temp. | Humidity | Pressure | Rain* | Wind** | Luminosity | Snow |
|---|---|---|---|---|---|---|---|
| 1777995066 | 18.89° C | 50% | 1013.7 hPa | 0 mm | 0 m/s | - | - |
| 1777994466 | 19.44° C | 49% | 1013.7 hPa | 0 mm | 0 m/s | - | - |
| 1777993866 | 19.44° C | 49% | 1013.6 hPa | 0 mm | 0.45 m/s, 90° | - | - |
| 1777993266 | 20° C | 52% | 1013.6 hPa | 0 mm | 0 m/s | - | - |
| 1777992666 | 19.44° C | 51% | 1013.5 hPa | 0 mm | 0 m/s | - | - |
| 1777992066 | 20° C | 51% | 1013.3 hPa | 0 mm | 0.89 m/s, 45° | - | - |
| 1777991466 | 19.44° C | 52% | 1013.3 hPa | 0 mm | 0.89 m/s, 90° | - | - |
| 1777990866 | 20° C | 52% | 1013.3 hPa | 0 mm | 0.89 m/s, 90° | - | - |
| 1777990267 | 20° C | 53% | 1013.2 hPa | 0 mm | 0.45 m/s, 45° | - | - |
| 1777989667 | 20° C | 52% | 1013.2 hPa | 0 mm | 0.45 m/s, 135° | - | - |
| 1777989067 | 20° C | 54% | 1013.1 hPa | 0 mm | 0.45 m/s, 90° | - | - |
| 1777988466 | 19.44° C | 53% | 1013.1 hPa | 0 mm | 0 m/s | - | - |
| 1777987866 | 20° C | 47% | 1013.1 hPa | 0 mm | 0.45 m/s, 90° | - | - |
| 1777987267 | 20.56° C | 46% | 1013 hPa | 0 mm | 0.45 m/s, 45° | - | - |
| 1777986667 | 21.67° C | 43% | 1012.9 hPa | 0 mm | 0.45 m/s, 202° | - | - |
| 1777986069 | 22.78° C | 40% | 1012.8 hPa | 0 mm | 0 m/s | - | - |
| 1777985467 | 21.67° C | 40% | 1012.9 hPa | 0 mm | 0.45 m/s, 202° | - | - |
| 1777984866 | 22.22° C | 40% | 1012.9 hPa | 0 mm | 0 m/s | - | - |
| 1777984267 | 22.22° C | 39% | 1013.1 hPa | 0 mm | 0 m/s | - | - |
| 1777983668 | 21.67° C | 41% | 1013.1 hPa | 0 mm | 0.45 m/s, 180° | - | - |
| 1777983080 | 21.11° C | 41% | 1013.1 hPa | 0 mm | 0 m/s | - | - |
| 1777982473 | 21.11° C | 42% | 1013.1 hPa | 0 mm | 0.89 m/s, 157° | - | - |
| 1777981867 | 21.11° C | 45% | 1013.2 hPa | 0 mm | 0 m/s | - | - |
| 1777981266 | 21.11° C | 44% | 1013.2 hPa | 0 mm | 0 m/s | - | - |
| 1777980667 | 20.56° C | 45% | 1013.2 hPa | 0 mm | 0 m/s | - | - |
* Rain latest hour (hover to see other rain measurements)
** Current wind speed in m/s (hover to see current wind gust speed)